Ana Sayfa
METAR-TAF:

METAR-TAF

Havaalanları :

İzmit, Türkiye

Cengiz Topel Havalimanı

Enlem: 40-44N, Boylam: 030-05E, yükseklik: 50 m

Güncel hava durumu gözlemi

Rapor saat 02:50 UTC de 43 dakika önce yapıldı.
Rüzgar doğu/kuzeydoğudan 4 kt
Sıcaklık 4°C
Nem 93%
Basınç 1011 hPa
Görüş mesafesi: 8000 m
1100 ft yükseklikte parçalı bulutlu
2000 ft yükseklikte parçalı çok bulutlu

METAR: LTBQ 260250Z 06004KT 8000 SCT011 BKN020 04/03 Q1011 NOSIG

Saat: 06:33 (03:33 UTC)

Tahmin

Rapor saat 01:40 UTC de 1 saat ve 53 dakika önce yapıldı.
Ayın 26'si saat 03 UTC'den ayın 26'si saat 12 UTC'ye kadar geçerli Tahmin
Rüzgar kuzeydoğudan 7 kt
Görüş mesafesi: 8000 m
1000 ft yükseklikte parçalı bulutlu
2000 ft yükseklikte parçalı çok bulutlu
Dönüşüyor
ayın 26'si saat 06 UTC'den ayın 26'si saat 08 UTC'ye kadar
3000 ft yükseklikte parçalı bulutlu
8000 ft yükseklikte parçalı çok bulutlu

TAF: LTBQ 260140Z 2603/2612 05007KT 8000 SCT010 BKN020 BECMG 2606/2608 SCT030 BKN080

4.000'den fazla havaalanı için hava durumu gözlemleri ve tahminleri (METAR ve TAF raporları).

Kullanılabilir istasyonlar harita üzerinde sarı ve kırmızı noktalarla gösterilir.

İstasyonun adını görmek için fareyi noktanın üzerinde gezdirin.

Sonrasında hava gözlem ve tahminlerini görmek için tıklayın.

Haritayı değiştirmek için: yaklaştırmak için siyah artı işaretli yeşil düğmeye ve uzaklaştırmak için de eksi işaretli düğmeye hızla tıklayın; bitişik haritalar için yeşil okları kullanın.


METAR-TAF: